createdAt,value
2022-12-05T00:01:13.348Z,85.46
2022-12-05T00:02:44.960Z,85.47
2022-12-05T00:04:16.653Z,85.29
2022-12-05T00:05:49.494Z,85.02
2022-12-05T00:07:21.331Z,85.11
2022-12-05T00:08:53.252Z,84.69
2022-12-05T00:10:24.822Z,84.95
2022-12-05T00:11:57.797Z,85.46
2022-12-05T00:13:29.604Z,85.75
2022-12-05T00:15:01.190Z,85.79
2022-12-05T00:16:34.085Z,85.38
2022-12-05T00:18:06.026Z,85.19
2022-12-05T00:19:37.678Z,84.75
2022-12-05T00:21:16.052Z,84.98
2022-12-05T00:22:47.735Z,85.46
2022-12-05T00:24:20.187Z,85.90
2022-12-05T00:25:51.737Z,85.65
2022-12-05T00:27:23.334Z,85.06
2022-12-05T00:28:56.949Z,85.46
2022-12-05T00:30:28.593Z,85.59
2022-12-05T00:32:02.651Z,85.78
2022-12-05T00:33:34.502Z,85.73
2022-12-05T00:35:06.389Z,86.08
2022-12-05T00:36:38.274Z,85.75
2022-12-05T00:38:09.819Z,85.27
2022-12-05T00:39:41.421Z,85.88
2022-12-05T00:41:18.624Z,85.69
2022-12-05T00:42:52.389Z,85.93
2022-12-05T00:44:24.274Z,85.99
2022-12-05T00:45:56.190Z,85.41
2022-12-05T00:47:27.924Z,85.80
2022-12-05T00:49:01.479Z,84.81
2022-12-05T00:50:33.036Z,84.94
2022-12-05T00:52:05.098Z,85.17
2022-12-05T00:53:37.342Z,85.93
2022-12-05T00:55:09.379Z,85.85
2022-12-05T00:56:41.237Z,86.11
2022-12-05T00:58:12.873Z,86.07
2022-12-05T00:59:44.622Z,86.30
2022-12-05T01:01:25.698Z,86.21
2022-12-05T01:02:57.376Z,86.04
2022-12-05T01:04:29.025Z,86.21
2022-12-05T01:06:00.757Z,86.63
2022-12-05T01:07:32.422Z,85.49
2022-12-05T01:09:05.432Z,85.99
2022-12-05T01:10:37.013Z,85.44
2022-12-05T01:12:08.617Z,86.16
2022-12-05T01:13:40.258Z,86.23
2022-12-05T01:15:12.267Z,86.54
2022-12-05T01:16:46.536Z,87.01
2022-12-05T01:18:19.916Z,87.19
2022-12-05T01:19:51.522Z,87.58
2022-12-05T01:21:23.701Z,87.45
2022-12-05T01:22:55.247Z,87.46
2022-12-05T01:24:28.891Z,87.32
2022-12-05T01:26:00.478Z,86.91
2022-12-05T01:27:32.334Z,87.21
2022-12-05T01:29:04.993Z,86.97
2022-12-05T01:30:42.765Z,87.52
2022-12-05T01:32:14.523Z,87.12
2022-12-05T01:33:46.089Z,87.21
2022-12-05T01:35:17.806Z,87.20
2022-12-05T01:36:49.512Z,87.38
2022-12-05T01:38:21.076Z,87.61
2022-12-05T01:39:52.650Z,87.10
2022-12-05T01:41:28.248Z,86.98
2022-12-05T01:43:00.564Z,87.59
2022-12-05T01:44:32.077Z,87.65
2022-12-05T01:46:03.659Z,87.71
2022-12-05T01:47:37.149Z,88.21
2022-12-05T01:49:11.084Z,88.34
2022-12-05T01:50:43.018Z,88.20
2022-12-05T01:52:19.289Z,88.34
2022-12-05T01:53:51.324Z,87.88
2022-12-05T01:55:23.070Z,87.79
2022-12-05T01:57:03.132Z,88.29
2022-12-05T01:58:38.742Z,88.32
2022-12-05T02:00:14.307Z,88.60
2022-12-05T02:01:46.016Z,88.55
2022-12-05T02:03:20.166Z,88.83
2022-12-05T02:05:09.120Z,88.85
2022-12-05T02:06:40.826Z,89.04
2022-12-05T02:08:12.471Z,89.12
2022-12-05T02:09:44.066Z,89.06
2022-12-05T02:11:15.771Z,89.19
2022-12-05T02:12:49.929Z,88.96
2022-12-05T02:14:30.963Z,88.70
2022-12-05T02:16:18.478Z,88.75
2022-12-05T02:18:05.231Z,88.96
2022-12-05T02:20:14.492Z,88.87
2022-12-05T02:22:16.359Z,89.00
2022-12-05T02:24:00.893Z,89.19
2022-12-05T02:26:02.431Z,89.15
2022-12-05T02:27:43.364Z,89.19
2022-12-05T02:29:36.810Z,89.35
2022-12-05T02:31:20.634Z,89.03
2022-12-05T02:33:10.755Z,89.17
2022-12-05T02:34:59.960Z,88.88
2022-12-05T02:36:44.616Z,88.73
2022-12-05T02:38:27.793Z,88.68
2022-12-05T02:40:08.215Z,88.90
2022-12-05T02:41:44.103Z,89.07
2022-12-05T02:43:38.736Z,89.30
2022-12-05T02:45:13.889Z,89.36
2022-12-05T02:46:48.845Z,89.09
2022-12-05T02:48:21.190Z,89.22
2022-12-05T02:49:55.093Z,89.52
2022-12-05T02:51:33.293Z,89.95
2022-12-05T02:53:10.743Z,89.45
2022-12-05T02:54:46.422Z,89.70
2022-12-05T02:56:19.258Z,89.44
2022-12-05T02:57:55.527Z,89.51
2022-12-05T02:59:27.456Z,89.70
2022-12-05T03:00:59.537Z,89.78
2022-12-05T03:02:34.979Z,89.69
2022-12-05T03:04:12.626Z,89.57
2022-12-05T03:05:44.226Z,89.43
2022-12-05T03:07:19.958Z,89.63
2022-12-05T03:08:57.267Z,89.42
2022-12-05T03:10:31.008Z,89.52
2022-12-05T03:12:13.440Z,89.30
2022-12-05T03:13:47.678Z,89.42
2022-12-05T03:15:25.924Z,89.59
2022-12-05T03:17:03.048Z,89.29
2022-12-05T03:18:41.021Z,89.35
2022-12-05T03:20:23.202Z,89.13
2022-12-05T03:22:09.446Z,89.21
2022-12-05T03:23:56.252Z,89.00
2022-12-05T03:25:50.804Z,88.80
2022-12-05T03:27:45.209Z,88.64
2022-12-05T03:29:26.808Z,88.98
2022-12-05T03:31:03.978Z,89.21
2022-12-05T03:32:57.836Z,89.17
2022-12-05T03:34:44.470Z,89.15
2022-12-05T03:36:22.799Z,89.41
2022-12-05T03:38:39.946Z,89.93
2022-12-05T03:40:32.215Z,89.76
2022-12-05T03:42:13.245Z,89.28
2022-12-05T03:43:44.868Z,89.50
2022-12-05T03:45:20.393Z,89.14
2022-12-05T03:47:15.153Z,89.14
2022-12-05T03:48:55.551Z,89.32
2022-12-05T03:50:29.839Z,89.83
2022-12-05T03:52:16.308Z,90.08
2022-12-05T03:54:02.079Z,89.62
2022-12-05T03:55:37.456Z,89.64
2022-12-05T03:57:15.834Z,90.04
2022-12-05T03:59:10.447Z,90.33
2022-12-05T04:00:47.595Z,90.62
2022-12-05T04:02:49.830Z,90.53
2022-12-05T04:04:42.072Z,90.55
2022-12-05T04:06:37.795Z,90.81
2022-12-05T04:08:33.974Z,90.87
2022-12-05T04:10:20.639Z,91.18
2022-12-05T04:11:57.154Z,90.93
2022-12-05T04:13:35.615Z,90.98
2022-12-05T04:15:27.574Z,91.55
2022-12-05T04:17:04.658Z,91.54
2022-12-05T04:18:41.748Z,91.71
2022-12-05T04:20:59.852Z,91.84
2022-12-05T04:22:32.818Z,91.50
2022-12-05T04:24:50.411Z,91.47
2022-12-05T04:26:31.684Z,91.68
2022-12-05T04:28:21.165Z,91.89
2022-12-05T04:30:02.424Z,91.91
2022-12-05T04:31:42.194Z,91.66
2022-12-05T04:33:32.449Z,91.16
2022-12-05T04:35:11.613Z,91.12
2022-12-05T04:36:45.216Z,91.47
2022-12-05T04:38:41.503Z,91.57
2022-12-05T04:40:21.658Z,91.55
2022-12-05T04:42:04.849Z,92.13
2022-12-05T04:43:39.960Z,92.41
2022-12-05T04:45:15.319Z,92.45
2022-12-05T04:46:50.214Z,92.79
2022-12-05T04:48:25.418Z,92.71
2022-12-05T04:49:59.062Z,92.45
2022-12-05T04:51:34.498Z,92.30
2022-12-05T04:53:08.868Z,92.25
2022-12-05T04:54:46.828Z,92.26
2022-12-05T04:56:21.754Z,92.36
2022-12-05T04:58:02.960Z,92.52
2022-12-05T04:59:35.144Z,92.34
2022-12-05T05:01:17.160Z,92.40
2022-12-05T05:03:13.857Z,92.28
2022-12-05T05:04:48.717Z,92.12
2022-12-05T05:06:20.485Z,92.01
2022-12-05T05:07:54.799Z,92.11
2022-12-05T05:09:26.468Z,92.55
2022-12-05T05:11:22.824Z,92.30
2022-12-05T05:12:54.612Z,92.51
2022-12-05T05:14:26.187Z,92.21
2022-12-05T05:15:57.858Z,92.07
2022-12-05T05:17:29.454Z,92.25
2022-12-05T05:19:01.294Z,92.54
2022-12-05T05:20:32.924Z,91.93
2022-12-05T05:22:04.439Z,92.06
2022-12-05T05:23:35.978Z,92.10
2022-12-05T05:25:07.853Z,92.39
2022-12-05T05:26:42.714Z,92.28
2022-12-05T05:28:14.341Z,92.10
2022-12-05T05:29:45.938Z,92.17
2022-12-05T05:31:19.013Z,92.04
2022-12-05T05:32:51.006Z,92.41
2022-12-05T05:34:22.623Z,92.31
2022-12-05T05:35:54.191Z,92.47
2022-12-05T05:37:25.740Z,92.67
2022-12-05T05:39:01.427Z,92.47
2022-12-05T05:40:36.821Z,92.41
2022-12-05T05:42:08.355Z,92.68
2022-12-05T05:43:41.042Z,92.42
2022-12-05T05:45:14.595Z,92.06
2022-12-05T05:46:46.472Z,91.76
2022-12-05T05:48:18.157Z,91.84
2022-12-05T05:49:49.743Z,91.76
2022-12-05T05:51:22.663Z,92.32
2022-12-05T05:52:54.386Z,91.84
2022-12-05T05:54:26.042Z,91.90
2022-12-05T05:55:57.886Z,91.54
2022-12-05T05:57:30.714Z,91.34
2022-12-05T05:59:03.692Z,91.55
2022-12-05T06:00:35.630Z,91.48
2022-12-05T06:02:07.417Z,91.65
2022-12-05T06:03:40.253Z,91.82
2022-12-05T06:05:12.008Z,91.41
2022-12-05T06:06:43.838Z,91.61
2022-12-05T06:08:15.529Z,91.55
2022-12-05T06:09:47.121Z,91.59
2022-12-05T06:11:28.895Z,91.62
2022-12-05T06:13:01.175Z,90.96
2022-12-05T06:14:32.993Z,91.16
2022-12-05T06:16:09.409Z,91.01
2022-12-05T06:17:41.042Z,90.60
2022-12-05T06:19:12.628Z,90.80
2022-12-05T06:20:55.869Z,90.76
2022-12-05T06:22:27.432Z,90.76
2022-12-05T06:23:59.263Z,90.35
2022-12-05T06:25:30.887Z,90.59
2022-12-05T06:27:02.568Z,90.57
2022-12-05T06:28:34.278Z,90.51
2022-12-05T06:30:06.612Z,91.08
2022-12-05T06:31:38.357Z,90.65
2022-12-05T06:33:11.450Z,90.20
2022-12-05T06:34:43.104Z,90.43
2022-12-05T06:36:17.679Z,90.77
2022-12-05T06:37:49.340Z,91.04
2022-12-05T06:39:21.082Z,91.01
2022-12-05T06:40:52.693Z,91.17
2022-12-05T06:42:24.329Z,91.34
2022-12-05T06:44:01.959Z,91.09
2022-12-05T06:45:34.313Z,91.23
2022-12-05T06:47:06.063Z,91.39
2022-12-05T06:48:37.783Z,91.35
2022-12-05T06:50:10.067Z,91.09
2022-12-05T06:51:41.768Z,90.99
2022-12-05T06:53:13.388Z,91.18
2022-12-05T06:54:46.746Z,90.97
2022-12-05T06:56:19.909Z,91.10
2022-12-05T06:57:52.027Z,91.45
2022-12-05T06:59:24.082Z,91.66
2022-12-05T07:01:14.483Z,91.50
2022-12-05T07:02:46.306Z,91.57
2022-12-05T07:04:23.983Z,91.75
2022-12-05T07:05:55.539Z,91.43
2022-12-05T07:07:29.728Z,91.33
2022-12-05T07:09:01.417Z,91.38
2022-12-05T07:10:32.990Z,91.35
2022-12-05T07:12:04.800Z,91.04
2022-12-05T07:13:36.577Z,91.11
2022-12-05T07:15:08.359Z,90.81
2022-12-05T07:16:40.115Z,90.74
2022-12-05T07:18:11.751Z,90.97
2022-12-05T07:19:43.379Z,90.29
2022-12-05T07:21:16.991Z,90.74
2022-12-05T07:22:48.655Z,90.00
2022-12-05T07:24:20.279Z,90.13
2022-12-05T07:25:51.910Z,90.20
2022-12-05T07:27:27.209Z,89.67
2022-12-05T07:28:59.455Z,89.62
2022-12-05T07:30:31.018Z,90.11
2022-12-05T07:32:03.183Z,89.89
2022-12-05T07:33:35.660Z,90.18
2022-12-05T07:35:08.136Z,90.05
2022-12-05T07:36:39.829Z,90.05
2022-12-05T07:38:11.348Z,90.44
2022-12-05T07:39:42.957Z,90.27
2022-12-05T07:41:20.248Z,90.71
2022-12-05T07:42:53.472Z,90.29
2022-12-05T07:44:25.056Z,90.05
2022-12-05T07:46:01.705Z,89.57
2022-12-05T07:47:33.426Z,89.41
2022-12-05T07:49:06.856Z,89.34
2022-12-05T07:50:38.380Z,89.18
2022-12-05T07:52:10.160Z,89.14
2022-12-05T07:53:43.820Z,89.29
2022-12-05T07:55:15.511Z,89.78
2022-12-05T07:56:48.115Z,89.47
2022-12-05T07:58:19.882Z,89.95
2022-12-05T07:59:51.505Z,89.67
2022-12-05T08:01:26.545Z,89.57
2022-12-05T08:02:58.550Z,89.53
2022-12-05T08:04:30.485Z,89.52
2022-12-05T08:06:08.465Z,89.34
2022-12-05T08:07:40.253Z,89.68
2022-12-05T08:09:11.997Z,89.34
2022-12-05T08:10:43.657Z,89.21
2022-12-05T08:12:15.405Z,89.53
2022-12-05T08:13:47.226Z,89.41
2022-12-05T08:15:18.898Z,89.33
2022-12-05T08:16:51.429Z,89.32
2022-12-05T08:18:27.320Z,89.20
2022-12-05T08:19:59.575Z,88.84
2022-12-05T08:21:32.513Z,88.80
2022-12-05T08:23:04.104Z,88.60
2022-12-05T08:24:35.707Z,88.60
2022-12-05T08:26:10.296Z,88.74
2022-12-05T08:27:42.064Z,88.91
2022-12-05T08:29:15.529Z,88.76
2022-12-05T08:30:47.327Z,88.45
2022-12-05T08:32:19.108Z,88.60
2022-12-05T08:33:57.339Z,87.81
2022-12-05T08:35:30.606Z,87.71
2022-12-05T08:37:02.289Z,86.50
2022-12-05T08:38:34.718Z,86.07
2022-12-05T08:40:07.188Z,85.70
2022-12-05T08:41:38.797Z,85.75
2022-12-05T08:43:10.415Z,86.19
2022-12-05T08:44:41.981Z,86.59
2022-12-05T08:46:13.696Z,86.20
2022-12-05T08:47:45.381Z,86.49
2022-12-05T08:49:17.780Z,86.40
2022-12-05T08:50:50.138Z,85.85
2022-12-05T08:52:22.869Z,86.41
2022-12-05T08:53:56.369Z,85.95
2022-12-05T08:55:28.195Z,86.38
2022-12-05T08:56:59.990Z,86.08
2022-12-05T08:58:32.025Z,86.29
2022-12-05T09:00:06.016Z,85.72
2022-12-05T09:01:39.508Z,85.91
2022-12-05T09:03:12.708Z,86.38
2022-12-05T09:04:49.524Z,86.16
2022-12-05T09:06:25.554Z,85.83
2022-12-05T09:08:00.052Z,86.45
2022-12-05T09:09:33.799Z,85.61
2022-12-05T09:11:09.873Z,86.35
2022-12-05T09:12:42.007Z,85.95
2022-12-05T09:14:15.338Z,85.58
2022-12-05T09:15:50.523Z,85.34
2022-12-05T09:17:24.742Z,84.90
2022-12-05T09:18:57.328Z,84.88
2022-12-05T09:20:29.825Z,85.27
2022-12-05T09:22:01.854Z,85.67
2022-12-05T09:23:34.390Z,85.60
2022-12-05T09:25:07.591Z,85.84
2022-12-05T09:26:41.414Z,85.61
2022-12-05T09:28:14.058Z,85.73
2022-12-05T09:29:46.341Z,85.58
2022-12-05T09:31:21.290Z,84.94
2022-12-05T09:32:53.203Z,84.34
2022-12-05T09:35:06.703Z,84.36
2022-12-05T09:36:38.362Z,84.44
2022-12-05T09:38:10.318Z,84.23
2022-12-05T09:39:44.435Z,84.86
2022-12-05T09:42:02.981Z,84.68
2022-12-05T09:44:14.588Z,84.38
2022-12-05T09:45:59.966Z,83.63
2022-12-05T09:47:56.792Z,84.37
2022-12-05T09:49:31.105Z,84.43
2022-12-05T09:51:04.423Z,84.73
2022-12-05T09:52:41.341Z,84.94
2022-12-05T09:54:13.492Z,84.70
2022-12-05T09:55:49.348Z,85.05
2022-12-05T09:57:33.617Z,85.14
2022-12-05T09:59:12.924Z,84.70
2022-12-05T10:00:44.862Z,84.87
2022-12-05T10:02:52.261Z,84.55
2022-12-05T10:04:29.877Z,84.34
2022-12-05T10:06:16.460Z,85.03
2022-12-05T10:08:01.347Z,84.58
2022-12-05T10:09:38.821Z,83.96
2022-12-05T10:11:13.344Z,84.25
2022-12-05T10:12:45.525Z,84.25
2022-12-05T10:14:35.492Z,83.90
2022-12-05T10:16:20.945Z,84.06
2022-12-05T10:17:59.487Z,83.95
2022-12-05T10:19:44.065Z,84.23
2022-12-05T10:21:21.571Z,83.47
2022-12-05T10:22:54.999Z,83.92
2022-12-05T10:24:41.086Z,83.47
2022-12-05T10:26:16.377Z,83.34
2022-12-05T10:27:53.277Z,83.37
2022-12-05T10:30:04.377Z,82.54
2022-12-05T10:31:40.113Z,83.25
2022-12-05T10:33:23.891Z,83.18
2022-12-05T10:35:07.251Z,83.46
2022-12-05T10:36:39.238Z,82.81
2022-12-05T10:38:16.928Z,82.66
2022-12-05T10:39:50.581Z,82.96
2022-12-05T10:41:22.736Z,82.61
2022-12-05T10:42:54.543Z,82.57
2022-12-05T10:44:26.919Z,82.61
2022-12-05T10:46:00.069Z,83.79
2022-12-05T10:47:32.201Z,83.99
2022-12-05T10:49:11.204Z,83.72
2022-12-05T10:50:44.705Z,82.84
2022-12-05T10:52:16.976Z,82.66
2022-12-05T10:53:51.227Z,82.53
2022-12-05T10:55:28.545Z,81.27
2022-12-05T10:57:00.525Z,80.18
2022-12-05T10:58:32.407Z,80.16
2022-12-05T11:00:13.942Z,80.02
2022-12-05T11:01:57.126Z,78.63
2022-12-05T11:03:36.069Z,78.84
2022-12-05T11:05:09.231Z,79.45
2022-12-05T11:06:51.920Z,79.05
2022-12-05T11:08:56.121Z,78.38
2022-12-05T11:10:26.524Z,78.18
2022-12-05T11:12:01.538Z,78.26
2022-12-05T11:13:35.317Z,78.74
2022-12-05T11:15:15.828Z,78.81
2022-12-05T11:16:59.219Z,78.54
2022-12-05T11:18:33.927Z,79.32
2022-12-05T11:20:17.890Z,78.57
2022-12-05T11:21:50.648Z,78.22
2022-12-05T11:23:28.697Z,78.90
2022-12-05T11:25:00.937Z,78.58
2022-12-05T11:26:35.918Z,77.76
2022-12-05T11:28:16.462Z,77.36
2022-12-05T11:29:57.378Z,77.09
2022-12-05T11:31:31.202Z,76.92
2022-12-05T11:33:23.293Z,76.78
2022-12-05T11:35:13.089Z,76.52
2022-12-05T11:36:51.945Z,76.41
2022-12-05T11:38:28.095Z,76.65
2022-12-05T11:40:01.793Z,76.74
2022-12-05T11:41:42.117Z,76.29
2022-12-05T11:43:54.371Z,76.21
2022-12-05T11:45:55.063Z,76.21
2022-12-05T11:47:35.326Z,75.63
2022-12-05T11:49:16.739Z,76.07
2022-12-05T11:51:19.348Z,76.08
2022-12-05T11:53:17.635Z,75.73
2022-12-05T11:55:20.518Z,75.13
2022-12-05T11:56:52.192Z,74.01
2022-12-05T11:59:04.276Z,74.49
2022-12-05T12:00:51.089Z,74.64
2022-12-05T12:02:41.688Z,74.84
2022-12-05T12:04:44.162Z,73.52
2022-12-05T12:06:20.601Z,74.71
2022-12-05T12:08:05.794Z,74.50
2022-12-05T12:09:59.561Z,74.09
2022-12-05T12:11:43.243Z,74.61
2022-12-05T12:13:40.194Z,74.64
2022-12-05T12:15:13.313Z,74.00
2022-12-05T12:17:15.857Z,74.42
2022-12-05T12:19:15.403Z,73.43
2022-12-05T12:21:12.877Z,73.10
2022-12-05T12:23:15.639Z,73.62
2022-12-05T12:24:56.555Z,74.21
2022-12-05T12:26:39.816Z,73.87
2022-12-05T12:28:29.922Z,72.73
2022-12-05T12:30:16.951Z,72.87
2022-12-05T12:32:07.073Z,72.20
2022-12-05T12:34:04.749Z,72.45
2022-12-05T12:35:55.553Z,71.55
2022-12-05T12:37:35.281Z,71.42
2022-12-05T12:39:53.458Z,70.99
2022-12-05T12:41:37.117Z,70.72
2022-12-05T12:43:53.166Z,70.63
2022-12-05T12:45:42.879Z,70.22
2022-12-05T12:47:28.324Z,69.85
2022-12-05T12:49:14.410Z,70.39
2022-12-05T12:50:53.036Z,70.29
2022-12-05T12:52:36.125Z,70.23
2022-12-05T12:54:34.172Z,69.91
2022-12-05T12:56:19.950Z,70.04
2022-12-05T12:57:53.227Z,70.60
2022-12-05T12:59:45.536Z,70.74
2022-12-05T13:01:36.462Z,70.74
2022-12-05T13:03:28.203Z,70.13
2022-12-05T13:05:27.221Z,69.56
2022-12-05T13:07:25.708Z,69.61
2022-12-05T13:09:21.465Z,70.14
2022-12-05T13:10:54.224Z,69.62
2022-12-05T13:12:31.825Z,70.28
2022-12-05T13:14:04.636Z,70.29
2022-12-05T13:15:42.124Z,70.37
2022-12-05T13:17:19.787Z,70.05
2022-12-05T13:18:52.955Z,70.58
2022-12-05T13:20:31.274Z,70.23
2022-12-05T13:22:06.083Z,69.57
2022-12-05T13:23:47.778Z,70.06
2022-12-05T13:25:25.177Z,70.17
2022-12-05T13:27:05.680Z,69.75
2022-12-05T13:28:59.761Z,69.55
2022-12-05T13:30:33.911Z,69.28
2022-12-05T13:32:23.818Z,69.80
2022-12-05T13:33:55.584Z,70.11
2022-12-05T13:35:54.749Z,69.70
2022-12-05T13:37:48.405Z,70.02
2022-12-05T13:39:41.006Z,69.68
2022-12-05T13:41:32.007Z,70.14
2022-12-05T13:43:04.860Z,70.18
2022-12-05T13:44:39.742Z,69.91
2022-12-05T13:46:19.697Z,70.26
2022-12-05T13:48:03.670Z,70.46
2022-12-05T13:49:43.308Z,69.96
2022-12-05T13:51:19.147Z,69.72
2022-12-05T13:52:55.416Z,69.55
2022-12-05T13:54:29.379Z,70.00
2022-12-05T13:56:22.378Z,70.63
2022-12-05T13:57:56.763Z,70.70
2022-12-05T14:00:04.917Z,71.08
2022-12-05T14:01:55.420Z,70.49
2022-12-05T14:03:34.751Z,70.61
2022-12-05T14:05:17.385Z,70.45
2022-12-05T14:06:51.719Z,70.19
2022-12-05T14:08:32.462Z,69.22
2022-12-05T14:10:04.959Z,69.43
2022-12-05T14:11:37.487Z,70.23
2022-12-05T14:13:16.305Z,70.48
2022-12-05T14:14:57.376Z,70.09
2022-12-05T14:16:32.635Z,70.52
2022-12-05T14:18:14.088Z,69.93
2022-12-05T14:19:52.044Z,70.76
2022-12-05T14:21:48.102Z,69.58
2022-12-05T14:23:53.782Z,69.80
2022-12-05T14:25:30.137Z,70.43
2022-12-05T14:27:07.175Z,70.97
2022-12-05T14:28:59.279Z,71.21
2022-12-05T14:30:52.603Z,70.52
2022-12-05T14:32:41.156Z,70.96
2022-12-05T14:34:16.326Z,71.10
2022-12-05T14:35:51.744Z,70.85
2022-12-05T14:37:48.379Z,69.72
2022-12-05T14:39:33.845Z,69.85
2022-12-05T14:41:24.435Z,69.45
2022-12-05T14:43:03.567Z,69.55
2022-12-05T14:44:35.287Z,70.57
2022-12-05T14:46:25.634Z,70.29
2022-12-05T14:48:00.109Z,70.55
2022-12-05T14:50:02.146Z,70.42
2022-12-05T14:51:34.455Z,70.11
2022-12-05T14:53:15.294Z,70.10
2022-12-05T14:54:47.966Z,70.05
2022-12-05T14:56:23.838Z,70.16
2022-12-05T14:57:55.730Z,70.39
2022-12-05T14:59:32.608Z,70.49
2022-12-05T15:01:16.436Z,70.49
2022-12-05T15:02:52.459Z,70.80
2022-12-05T15:04:42.421Z,71.40
2022-12-05T15:06:16.227Z,71.70
2022-12-05T15:07:48.329Z,72.22
2022-12-05T15:09:49.076Z,72.37
2022-12-05T15:11:30.640Z,72.95
2022-12-05T15:13:25.152Z,72.95
2022-12-05T15:15:13.675Z,73.30
2022-12-05T15:16:50.752Z,73.40
2022-12-05T15:18:28.205Z,73.33
2022-12-05T15:20:18.574Z,73.60
2022-12-05T15:21:57.051Z,73.14
2022-12-05T15:23:44.383Z,73.25
2022-12-05T15:25:29.389Z,73.91
2022-12-05T15:27:04.169Z,74.28
2022-12-05T15:28:35.899Z,73.85
2022-12-05T15:30:16.891Z,74.18
2022-12-05T15:31:54.516Z,74.12
2022-12-05T15:33:27.451Z,74.07
2022-12-05T15:35:06.246Z,74.54
2022-12-05T15:36:44.189Z,74.50
2022-12-05T15:38:32.870Z,75.02
2022-12-05T15:40:07.399Z,74.71
2022-12-05T15:41:39.137Z,74.11
2022-12-05T15:43:33.750Z,74.86
2022-12-05T15:45:14.974Z,74.00
2022-12-05T15:46:55.698Z,73.92
2022-12-05T15:48:27.374Z,73.83
2022-12-05T15:49:59.468Z,73.64
2022-12-05T15:51:37.857Z,74.37
2022-12-05T15:53:18.019Z,74.45
2022-12-05T15:54:52.022Z,74.87
2022-12-05T15:56:33.450Z,75.68
2022-12-05T15:58:13.672Z,76.42
2022-12-05T16:00:01.200Z,76.40
2022-12-05T16:01:40.289Z,76.12
2022-12-05T16:03:16.739Z,76.31
2022-12-05T16:04:55.119Z,76.70
2022-12-05T16:06:37.718Z,76.59
2022-12-05T16:08:10.450Z,76.07
2022-12-05T16:09:46.571Z,76.04
2022-12-05T16:11:19.292Z,76.35
2022-12-05T16:12:54.052Z,76.67
2022-12-05T16:16:33.536Z,76.33
2022-12-05T16:19:42.082Z,76.71
2022-12-05T16:21:37.920Z,76.48
2022-12-05T16:23:32.975Z,77.27
2022-12-05T16:25:15.458Z,77.02
2022-12-05T16:26:58.170Z,77.61
2022-12-05T16:28:34.185Z,77.72
2022-12-05T16:30:18.038Z,78.00
2022-12-05T16:32:04.861Z,77.92
2022-12-05T16:33:43.216Z,76.60
2022-12-05T16:35:34.594Z,75.71
2022-12-05T16:37:18.295Z,75.07
2022-12-05T16:38:50.648Z,76.16
2022-12-05T16:40:23.374Z,75.88
2022-12-05T16:41:55.958Z,75.82
2022-12-05T16:43:36.844Z,75.90
2022-12-05T16:45:43.311Z,76.95
2022-12-05T16:47:44.680Z,77.38
2022-12-05T16:49:25.847Z,76.99
2022-12-05T16:51:18.471Z,76.95
2022-12-05T16:52:51.360Z,77.22
2022-12-05T16:54:23.024Z,77.03
2022-12-05T16:55:55.845Z,77.04
2022-12-05T16:57:28.119Z,77.53
2022-12-05T16:59:07.176Z,77.73
2022-12-05T17:00:39.562Z,77.76
2022-12-05T17:02:17.629Z,77.94
2022-12-05T17:03:50.666Z,78.14
2022-12-05T17:05:24.013Z,78.05
2022-12-05T17:06:56.688Z,78.36
2022-12-05T17:08:28.632Z,77.55
2022-12-05T17:10:00.668Z,77.34
2022-12-05T17:11:35.691Z,77.62
2022-12-05T17:13:07.793Z,77.92
2022-12-05T17:14:39.957Z,77.64
2022-12-05T17:16:12.455Z,78.22
2022-12-05T17:17:45.071Z,78.11
2022-12-05T17:19:17.923Z,78.34
2022-12-05T17:20:56.443Z,77.97
2022-12-05T17:22:31.230Z,78.01
2022-12-05T17:24:04.056Z,77.43
2022-12-05T17:25:39.645Z,77.77
2022-12-05T17:27:12.565Z,77.47
2022-12-05T17:28:44.539Z,78.34
2022-12-05T17:30:18.285Z,78.51
2022-12-05T17:31:50.823Z,78.63
2022-12-05T17:33:24.009Z,78.61
2022-12-05T17:35:01.126Z,78.49
2022-12-05T17:36:39.734Z,78.18
2022-12-05T17:38:12.223Z,78.20
2022-12-05T17:39:45.347Z,77.85
2022-12-05T17:41:23.882Z,78.20
2022-12-05T17:42:57.125Z,78.42
2022-12-05T17:44:30.189Z,78.56
2022-12-05T17:46:02.647Z,78.87
2022-12-05T17:47:36.130Z,78.58
2022-12-05T17:49:15.107Z,79.14
2022-12-05T17:50:49.423Z,78.47
2022-12-05T17:52:24.186Z,79.00
2022-12-05T17:53:57.914Z,79.17
2022-12-05T17:55:33.399Z,78.90
2022-12-05T17:57:08.514Z,79.73
2022-12-05T17:58:43.602Z,79.22
2022-12-05T18:00:18.911Z,79.42
2022-12-05T18:01:52.011Z,80.08
2022-12-05T18:03:25.161Z,80.12
2022-12-05T18:04:59.888Z,79.76
2022-12-05T18:06:34.625Z,79.91
2022-12-05T18:08:09.595Z,80.09
2022-12-05T18:09:44.173Z,80.69
2022-12-05T18:11:16.919Z,80.36
2022-12-05T18:12:51.325Z,80.05
2022-12-05T18:14:26.605Z,80.25
2022-12-05T18:16:00.521Z,80.20
2022-12-05T18:17:33.570Z,80.80
2022-12-05T18:19:08.386Z,80.81
2022-12-05T18:20:41.035Z,80.95
2022-12-05T18:22:15.908Z,81.20
2022-12-05T18:23:52.721Z,80.95
2022-12-05T18:25:26.740Z,80.47
2022-12-05T18:26:59.078Z,81.00
2022-12-05T18:28:31.609Z,81.48
2022-12-05T18:30:05.869Z,81.77
2022-12-05T18:31:41.847Z,81.79
2022-12-05T18:33:13.993Z,82.24
2022-12-05T18:34:46.668Z,82.26
2022-12-05T18:36:20.937Z,82.11
2022-12-05T18:37:53.581Z,82.81
2022-12-05T18:39:25.539Z,82.26
2022-12-05T18:41:05.340Z,82.45
2022-12-05T18:42:39.247Z,82.21
2022-12-05T18:44:11.289Z,82.07
2022-12-05T18:45:43.121Z,82.59
2022-12-05T18:47:15.890Z,82.75
2022-12-05T18:48:49.121Z,82.05
2022-12-05T18:50:21.309Z,81.76
2022-12-05T18:51:53.896Z,81.70
2022-12-05T18:53:26.078Z,81.55
2022-12-05T18:55:16.200Z,81.58
2022-12-05T18:56:50.885Z,82.06
2022-12-05T18:58:24.452Z,82.19
2022-12-05T18:59:56.695Z,82.00
2022-12-05T19:01:31.118Z,81.86
2022-12-05T19:03:07.933Z,82.00
2022-12-05T19:04:41.071Z,82.25
2022-12-05T19:06:16.260Z,82.65
2022-12-05T19:07:48.714Z,82.27
2022-12-05T19:09:23.101Z,82.35
2022-12-05T19:10:55.455Z,81.90
2022-12-05T19:12:27.499Z,81.85
2022-12-05T19:14:01.477Z,82.20
2022-12-05T19:15:33.168Z,81.99
2022-12-05T19:17:05.049Z,81.48
2022-12-05T19:18:37.268Z,82.17
2022-12-05T19:20:09.448Z,82.02
2022-12-05T19:21:42.382Z,82.11
2022-12-05T19:23:14.020Z,81.77
2022-12-05T19:24:46.023Z,81.52
2022-12-05T19:26:17.981Z,80.87
2022-12-05T19:27:49.829Z,81.08
2022-12-05T19:29:21.806Z,81.84
2022-12-05T19:31:06.343Z,82.01
2022-12-05T19:32:40.304Z,82.25
2022-12-05T19:34:13.601Z,82.15
2022-12-05T19:35:45.901Z,82.47
2022-12-05T19:37:19.367Z,82.35
2022-12-05T19:38:54.002Z,82.82
2022-12-05T19:40:25.999Z,83.06
2022-12-05T19:41:59.507Z,83.03
2022-12-05T19:43:34.157Z,82.32
2022-12-05T19:45:12.252Z,82.33
2022-12-05T19:46:50.380Z,82.52
2022-12-05T19:48:23.627Z,82.10
2022-12-05T19:49:57.444Z,81.93
2022-12-05T19:51:32.126Z,81.86
2022-12-05T19:53:04.494Z,82.15
2022-12-05T19:54:38.245Z,82.42
2022-12-05T19:56:23.769Z,82.72
2022-12-05T19:57:57.732Z,82.83
2022-12-05T19:59:32.396Z,82.62
2022-12-05T20:01:14.064Z,82.57
2022-12-05T20:02:50.250Z,82.63
2022-12-05T20:04:23.485Z,82.57
2022-12-05T20:06:00.182Z,82.85
2022-12-05T20:07:33.093Z,82.72
2022-12-05T20:09:08.208Z,83.17
2022-12-05T20:10:40.756Z,83.07
2022-12-05T20:12:14.530Z,82.87
2022-12-05T20:13:48.568Z,82.96
2022-12-05T20:15:22.611Z,82.91
2022-12-05T20:16:56.255Z,82.93
2022-12-05T20:18:29.957Z,82.72
2022-12-05T20:20:03.973Z,82.65
2022-12-05T20:21:40.949Z,82.69
2022-12-05T20:23:14.848Z,82.30
2022-12-05T20:24:48.103Z,82.62
2022-12-05T20:26:25.343Z,82.86
2022-12-05T20:27:58.647Z,82.78
2022-12-05T20:29:31.345Z,82.78
2022-12-05T20:31:10.010Z,82.92
2022-12-05T20:32:42.402Z,83.18
2022-12-05T20:34:16.078Z,83.35
2022-12-05T20:35:49.971Z,83.23
2022-12-05T20:37:21.887Z,83.36
2022-12-05T20:38:59.007Z,83.47
2022-12-05T20:40:32.618Z,82.94
2022-12-05T20:42:05.521Z,82.82
2022-12-05T20:43:38.996Z,82.89
2022-12-05T20:45:11.617Z,83.11
2022-12-05T20:46:44.399Z,83.36
2022-12-05T20:48:18.477Z,84.06
2022-12-05T20:49:51.127Z,83.93
2022-12-05T20:51:26.164Z,82.92
2022-12-05T20:52:58.362Z,83.13
2022-12-05T20:54:30.489Z,82.03
2022-12-05T20:56:17.722Z,82.79
2022-12-05T20:57:49.800Z,82.91
2022-12-05T20:59:21.770Z,82.83
2022-12-05T21:01:05.917Z,83.60
2022-12-05T21:02:39.390Z,83.63
2022-12-05T21:04:13.588Z,83.23